createdAt,value
2023-04-21T00:00:50.413Z,44.63
2023-04-21T00:01:50.441Z,44.15
2023-04-21T00:02:50.534Z,43.51
2023-04-21T00:03:50.581Z,43.34
2023-04-21T00:04:50.500Z,43.83
2023-04-21T00:05:50.450Z,44.96
2023-04-21T00:06:50.382Z,43.51
2023-04-21T00:07:50.377Z,44.63
2023-04-21T00:08:50.356Z,45.28
2023-04-21T00:09:50.354Z,44.47
2023-04-21T00:10:50.325Z,44.63
2023-04-21T00:11:50.340Z,44.31
2023-04-21T00:12:50.302Z,43.67
2023-04-21T00:13:50.318Z,43.83
2023-04-21T00:14:50.316Z,43.18
2023-04-21T00:15:50.327Z,43.02
2023-04-21T00:16:50.304Z,43.18
2023-04-21T00:17:50.278Z,42.86
2023-04-21T00:18:50.240Z,44.47
2023-04-21T00:19:50.252Z,42.86
2023-04-21T00:20:50.250Z,42.86
2023-04-21T00:21:51.281Z,42.70
2023-04-21T00:22:50.245Z,42.86
2023-04-21T00:23:50.280Z,42.86
2023-04-21T00:24:50.215Z,43.18
2023-04-21T00:25:50.181Z,43.18
2023-04-21T00:26:50.197Z,42.70
2023-04-21T00:27:50.202Z,42.22
2023-04-21T00:28:50.179Z,42.70
2023-04-21T00:29:50.154Z,43.02
2023-04-21T00:30:50.145Z,43.99
2023-04-21T00:31:50.261Z,42.70
2023-04-21T00:32:50.169Z,42.86
2023-04-21T00:33:50.174Z,42.38
2023-04-21T00:34:50.119Z,43.18
2023-04-21T00:35:50.138Z,44.31
2023-04-21T00:36:50.120Z,43.34
2023-04-21T00:37:50.151Z,42.86
2023-04-21T00:38:50.125Z,43.02
2023-04-21T00:39:50.088Z,43.83
2023-04-21T00:40:50.069Z,43.18
2023-04-21T00:41:50.067Z,43.34
2023-04-21T00:42:50.744Z,42.70
2023-04-21T00:43:50.081Z,42.54
2023-04-21T00:44:50.120Z,45.28
2023-04-21T00:45:50.058Z,44.96
2023-04-21T00:46:50.095Z,46.89
2023-04-21T00:47:50.257Z,44.31
2023-04-21T00:48:50.026Z,43.34
2023-04-21T00:49:50.064Z,42.54
2023-04-21T00:50:50.016Z,43.02
2023-04-21T00:51:49.990Z,42.70
2023-04-21T00:52:49.991Z,43.02
2023-04-21T00:53:49.978Z,42.86
2023-04-21T00:54:50.771Z,42.54
2023-04-21T00:55:50.079Z,42.86
2023-04-21T00:56:49.990Z,43.02
2023-04-21T00:57:49.959Z,43.18
2023-04-21T00:58:49.948Z,43.02
2023-04-21T00:59:49.972Z,43.18
2023-04-21T01:00:50.080Z,43.02
2023-04-21T01:01:49.955Z,42.70
2023-04-21T01:02:50.148Z,42.70
2023-04-21T01:03:50.167Z,43.02
2023-04-21T01:04:49.961Z,43.18
2023-04-21T01:05:49.912Z,43.18
2023-04-21T01:06:49.917Z,42.70
2023-04-21T01:07:49.878Z,42.86
2023-04-21T01:08:49.911Z,42.54
2023-04-21T01:09:49.875Z,42.70
2023-04-21T01:10:50.755Z,42.22
2023-04-21T01:11:49.906Z,42.70
2023-04-21T01:12:49.863Z,43.67
2023-04-21T01:13:49.865Z,42.06
2023-04-21T01:14:49.828Z,42.38
2023-04-21T01:15:49.888Z,43.83
2023-04-21T01:16:49.872Z,43.18
2023-04-21T01:17:50.021Z,43.67
2023-04-21T01:18:49.803Z,43.02
2023-04-21T01:19:49.801Z,43.18
2023-04-21T01:20:49.817Z,43.34
2023-04-21T01:21:49.790Z,43.99
2023-04-21T01:22:49.936Z,45.44
2023-04-21T01:23:50.653Z,43.83
2023-04-21T01:24:50.652Z,43.99
2023-04-21T01:25:49.765Z,44.47
2023-04-21T01:26:49.755Z,44.31
2023-04-21T01:27:49.752Z,42.70
2023-04-21T01:28:49.736Z,42.86
2023-04-21T01:29:49.803Z,43.02
2023-04-21T01:30:49.716Z,43.67
2023-04-21T01:31:49.808Z,45.28
2023-04-21T01:32:49.737Z,43.18
2023-04-21T01:33:50.715Z,43.34
2023-04-21T01:34:49.694Z,42.86
2023-04-21T01:35:49.722Z,43.34
2023-04-21T01:36:50.262Z,43.99
2023-04-21T01:37:49.690Z,43.67
2023-04-21T01:38:49.664Z,43.51
2023-04-21T01:39:49.642Z,43.67
2023-04-21T01:40:49.650Z,43.99
2023-04-21T01:41:49.624Z,43.34
2023-04-21T01:42:49.672Z,46.08
2023-04-21T01:43:49.637Z,44.63
2023-04-21T01:44:49.679Z,43.99
2023-04-21T01:45:49.681Z,43.18
2023-04-21T01:46:49.645Z,42.86
2023-04-21T01:47:49.624Z,43.18
2023-04-21T01:48:49.623Z,43.34
2023-04-21T01:49:50.617Z,43.67
2023-04-21T01:50:49.578Z,44.79
2023-04-21T01:51:49.567Z,43.18
2023-04-21T01:52:49.561Z,43.51
2023-04-21T01:53:50.153Z,43.83
2023-04-21T01:54:49.576Z,43.99
2023-04-21T01:55:49.580Z,44.15
2023-04-21T01:56:49.575Z,44.31
2023-04-21T01:57:50.163Z,43.34
2023-04-21T01:58:49.524Z,44.63
2023-04-21T01:59:49.557Z,44.63
2023-04-21T02:00:49.508Z,42.86
2023-04-21T02:01:49.646Z,42.70
2023-04-21T02:02:49.572Z,43.83
2023-04-21T02:03:49.739Z,44.31
2023-04-21T02:04:49.491Z,44.63
2023-04-21T02:05:49.467Z,45.12
2023-04-21T02:06:49.447Z,44.15
2023-04-21T02:07:49.450Z,43.99
2023-04-21T02:08:49.441Z,43.99
2023-04-21T02:09:49.452Z,43.18
2023-04-21T02:10:49.445Z,42.86
2023-04-21T02:11:50.291Z,43.18
2023-04-21T02:12:49.464Z,43.83
2023-04-21T02:13:50.306Z,44.63
2023-04-21T02:14:49.401Z,44.47
2023-04-21T02:15:50.420Z,44.31
2023-04-21T02:16:49.459Z,44.79
2023-04-21T02:17:49.454Z,43.34
2023-04-21T02:18:49.354Z,43.18
2023-04-21T02:19:50.152Z,43.34
2023-04-21T02:20:49.352Z,43.34
2023-04-21T02:21:49.325Z,43.51
2023-04-21T02:22:49.356Z,44.31
2023-04-21T02:23:49.336Z,44.63
2023-04-21T02:24:49.297Z,44.47
2023-04-21T02:25:49.304Z,43.83
2023-04-21T02:26:49.333Z,45.76
2023-04-21T02:27:49.305Z,44.79
2023-04-21T02:28:49.280Z,43.83
2023-04-21T02:29:49.288Z,44.63
2023-04-21T02:30:49.395Z,45.44
2023-04-21T02:32:00.829Z,43.34
2023-04-21T02:32:51.345Z,45.28
2023-04-21T02:33:49.252Z,46.08
2023-04-21T02:34:50.158Z,45.44
2023-04-21T02:35:49.240Z,47.53
2023-04-21T02:36:49.225Z,47.05
2023-04-21T02:37:49.239Z,44.79
2023-04-21T02:38:49.202Z,44.79
2023-04-21T02:39:49.203Z,44.63
2023-04-21T02:40:49.207Z,44.31
2023-04-21T02:41:49.175Z,45.28
2023-04-21T02:42:49.189Z,46.89
2023-04-21T02:43:50.166Z,47.70
2023-04-21T02:44:49.165Z,44.96
2023-04-21T02:45:49.146Z,45.76
2023-04-21T02:46:49.213Z,45.92
2023-04-21T02:47:49.182Z,46.73
2023-04-21T02:48:49.141Z,46.25
2023-04-21T02:49:49.137Z,44.79
2023-04-21T02:50:49.805Z,44.96
2023-04-21T02:51:49.116Z,45.28
2023-04-21T02:52:49.155Z,47.05
2023-04-21T02:53:49.074Z,46.73
2023-04-21T02:54:49.094Z,45.28
2023-04-21T02:55:49.073Z,44.63
2023-04-21T02:56:49.075Z,46.57
2023-04-21T02:57:49.099Z,45.76
2023-04-21T02:58:49.053Z,44.15
2023-04-21T02:59:49.046Z,44.96
2023-04-21T03:00:49.082Z,44.31
2023-04-21T03:01:49.046Z,43.83
2023-04-21T03:02:49.194Z,45.44
2023-04-21T03:03:49.073Z,48.50
2023-04-21T03:04:49.051Z,45.28
2023-04-21T03:05:49.024Z,45.12
2023-04-21T03:06:48.980Z,46.73
2023-04-21T03:07:48.995Z,48.82
2023-04-21T03:08:48.957Z,47.86
2023-04-21T03:09:48.962Z,45.44
2023-04-21T03:10:48.984Z,46.25
2023-04-21T03:11:48.999Z,45.28
2023-04-21T03:12:48.941Z,47.70
2023-04-21T03:13:48.992Z,47.37
2023-04-21T03:14:48.939Z,47.70
2023-04-21T03:15:48.950Z,46.41
2023-04-21T03:17:21.682Z,45.92
2023-04-21T03:17:48.950Z,46.25
2023-04-21T03:18:48.898Z,46.57
2023-04-21T03:19:48.893Z,48.82
2023-04-21T03:20:48.906Z,48.18
2023-04-21T03:21:48.922Z,51.08
2023-04-21T03:22:48.894Z,48.34
2023-04-21T03:23:49.795Z,48.98
2023-04-21T03:24:48.850Z,46.25
2023-04-21T03:25:48.865Z,49.47
2023-04-21T03:26:48.866Z,48.02
2023-04-21T03:27:48.867Z,47.53
2023-04-21T03:28:49.841Z,53.17
2023-04-21T03:29:48.849Z,49.15
2023-04-21T03:30:48.897Z,51.56
2023-04-21T03:31:48.864Z,52.05
2023-04-21T03:32:48.845Z,48.34
2023-04-21T03:33:49.689Z,48.02
2023-04-21T03:34:49.779Z,48.18
2023-04-21T03:35:48.835Z,52.69
2023-04-21T03:36:48.801Z,50.43
2023-04-21T03:37:48.802Z,50.43
2023-04-21T03:38:48.788Z,50.92
2023-04-21T03:39:48.789Z,51.40
2023-04-21T03:40:48.801Z,48.98
2023-04-21T03:41:48.735Z,53.50
2023-04-21T03:42:48.723Z,52.69
2023-04-21T03:43:48.711Z,48.34
2023-04-21T03:44:48.743Z,53.66
2023-04-21T03:45:48.794Z,47.05
2023-04-21T03:46:48.696Z,55.43
2023-04-21T04:03:51.716Z,50.27
2023-04-21T04:04:51.718Z,48.50
2023-04-21T04:05:52.761Z,50.43
2023-04-21T04:06:52.731Z,48.02
2023-04-21T04:07:52.741Z,52.53
2023-04-21T04:08:52.715Z,49.47
2023-04-21T04:09:52.721Z,50.27
2023-04-21T04:10:52.703Z,49.15
2023-04-21T04:11:52.690Z,48.34
2023-04-21T04:12:52.696Z,49.95
2023-04-21T04:13:52.679Z,49.79
2023-04-21T04:14:52.664Z,47.37
2023-04-21T04:15:52.715Z,51.40
2023-04-21T04:16:52.662Z,49.47
2023-04-21T04:17:52.731Z,49.95
2023-04-21T04:18:52.654Z,50.92
2023-04-21T04:19:52.657Z,49.15
2023-04-21T04:20:52.638Z,49.79
2023-04-21T04:21:52.624Z,53.50
2023-04-21T04:22:52.629Z,52.21
2023-04-21T04:23:52.596Z,50.60
2023-04-21T04:24:52.628Z,49.63
2023-04-21T04:25:52.566Z,49.15
2023-04-21T04:26:52.580Z,53.82
2023-04-21T04:27:52.582Z,51.56
2023-04-21T04:28:52.563Z,56.40
2023-04-21T04:29:52.567Z,51.88
2023-04-21T04:30:53.371Z,54.95
2023-04-21T04:31:53.348Z,56.56
2023-04-21T04:32:52.560Z,61.07
2023-04-21T04:33:54.979Z,51.24
2023-04-21T04:34:53.526Z,51.08
2023-04-21T04:35:52.515Z,58.65
2023-04-21T04:36:52.505Z,52.69
2023-04-21T04:37:52.519Z,49.95
2023-04-21T04:38:52.497Z,51.56
2023-04-21T04:39:52.465Z,63.49
2023-04-21T04:40:52.531Z,57.04
2023-04-21T04:41:52.469Z,56.24
2023-04-21T04:42:52.509Z,56.24
2023-04-21T04:43:52.446Z,60.42
2023-04-21T04:44:52.421Z,47.86
2023-04-21T04:45:52.406Z,49.47
2023-04-21T04:46:53.449Z,52.37
2023-04-21T04:47:52.501Z,57.85
2023-04-21T04:48:52.402Z,55.59
2023-04-21T04:49:52.394Z,50.43
2023-04-21T04:50:52.376Z,49.31
2023-04-21T04:51:52.376Z,57.69
2023-04-21T04:52:52.456Z,50.92
2023-04-21T04:53:52.352Z,48.50
2023-04-21T04:54:52.360Z,56.72
2023-04-21T04:55:52.359Z,58.33
2023-04-21T04:56:52.330Z,53.82
2023-04-21T04:57:52.324Z,50.60
2023-04-21T04:58:52.348Z,53.01
2023-04-21T04:59:52.312Z,50.43
2023-04-21T05:00:52.294Z,53.33
2023-04-21T05:01:52.317Z,57.20
2023-04-21T05:02:52.411Z,58.01
2023-04-21T05:03:52.383Z,53.66
2023-04-21T05:04:52.412Z,61.23
2023-04-21T05:05:52.266Z,57.04
2023-04-21T05:06:52.254Z,54.79
2023-04-21T05:07:52.249Z,51.08
2023-04-21T05:08:52.261Z,58.65
2023-04-21T05:09:52.253Z,55.75
2023-04-21T05:10:52.221Z,53.82
2023-04-21T05:11:52.211Z,54.30
2023-04-21T05:12:52.192Z,57.20
2023-04-21T05:13:52.259Z,60.42
2023-04-21T05:14:52.237Z,61.23
2023-04-21T05:15:52.198Z,63.16
2023-04-21T05:16:52.252Z,60.26
2023-04-21T05:17:52.210Z,54.95
2023-04-21T05:18:52.162Z,55.27
2023-04-21T05:19:52.170Z,55.11
2023-04-21T05:20:52.195Z,53.17
2023-04-21T05:21:52.140Z,56.40
2023-04-21T05:22:52.141Z,49.31
2023-04-21T05:23:52.163Z,49.79
2023-04-21T05:24:52.134Z,56.24
2023-04-21T05:25:52.196Z,53.01
2023-04-21T05:26:52.156Z,60.91
2023-04-21T05:27:52.112Z,52.05
2023-04-21T05:28:52.082Z,55.11
2023-04-21T05:29:52.069Z,51.88
2023-04-21T05:30:52.091Z,60.26
2023-04-21T05:31:52.121Z,51.56
2023-04-21T05:32:52.103Z,56.72
2023-04-21T05:33:52.084Z,61.71
2023-04-21T05:34:52.026Z,62.68
2023-04-21T05:35:52.051Z,60.10
2023-04-21T05:36:52.066Z,65.10
2023-04-21T05:37:52.119Z,56.72
2023-04-21T05:38:52.011Z,63.33
2023-04-21T05:39:52.009Z,56.40
2023-04-21T05:40:51.976Z,51.72
2023-04-21T05:41:51.994Z,57.04
2023-04-21T05:42:51.971Z,50.76
2023-04-21T05:43:52.076Z,58.33
2023-04-21T05:44:51.970Z,65.90
2023-04-21T05:45:51.959Z,52.37
2023-04-21T05:46:51.994Z,56.72
2023-04-21T05:47:52.053Z,53.98
2023-04-21T05:48:51.947Z,56.56
2023-04-21T05:49:51.917Z,48.50
2023-04-21T05:50:51.928Z,56.88
2023-04-21T05:51:51.970Z,52.53
2023-04-21T05:52:51.971Z,63.65
2023-04-21T05:53:51.922Z,55.11
2023-04-21T05:54:51.882Z,55.91
2023-04-21T05:55:51.890Z,57.69
2023-04-21T05:56:51.878Z,60.26
2023-04-21T05:57:51.874Z,54.62
2023-04-21T05:58:51.851Z,51.88
2023-04-21T05:59:51.855Z,52.69
2023-04-21T06:00:51.847Z,50.92
2023-04-21T06:01:51.817Z,51.72
2023-04-21T06:02:52.064Z,52.05
2023-04-21T06:03:51.901Z,56.07
2023-04-21T06:04:51.928Z,57.69
2023-04-21T06:05:51.883Z,55.11
2023-04-21T06:06:51.871Z,48.98
2023-04-21T06:07:51.826Z,61.39
2023-04-21T06:08:51.803Z,51.08
2023-04-21T06:09:51.835Z,53.01
2023-04-21T06:10:51.828Z,55.11
2023-04-21T06:11:51.774Z,55.27
2023-04-21T06:12:52.367Z,49.15
2023-04-21T06:13:51.786Z,57.69
2023-04-21T06:14:51.761Z,51.24
2023-04-21T06:15:51.767Z,61.71
2023-04-21T06:16:51.727Z,52.05
2023-04-21T06:17:51.721Z,57.69
2023-04-21T06:18:51.711Z,53.33
2023-04-21T06:19:51.724Z,59.14
2023-04-21T06:20:51.687Z,49.47
2023-04-21T06:21:51.678Z,54.30
2023-04-21T06:22:51.681Z,55.27
2023-04-21T06:23:51.647Z,58.97
2023-04-21T06:24:51.657Z,55.43
2023-04-21T06:25:51.664Z,49.47
2023-04-21T06:26:51.657Z,53.17
2023-04-21T06:27:51.633Z,58.81
2023-04-21T06:28:51.610Z,54.62
2023-04-21T06:29:51.626Z,48.34
2023-04-21T06:30:51.616Z,51.88
2023-04-21T06:31:51.699Z,57.52
2023-04-21T06:32:51.624Z,57.04
2023-04-21T06:33:51.593Z,51.56
2023-04-21T06:34:51.576Z,53.17
2023-04-21T06:35:51.584Z,54.79
2023-04-21T06:36:51.547Z,48.18
2023-04-21T06:37:51.575Z,50.76
2023-04-21T06:38:51.529Z,51.72
2023-04-21T06:39:51.543Z,53.17
2023-04-21T06:40:51.553Z,54.62
2023-04-21T06:41:51.522Z,56.56
2023-04-21T06:42:51.505Z,62.04
2023-04-21T06:43:51.520Z,59.14
2023-04-21T06:44:51.485Z,52.53
2023-04-21T06:45:51.513Z,56.07
2023-04-21T06:46:51.509Z,54.62
2023-04-21T06:47:51.551Z,52.21
2023-04-21T06:48:51.460Z,47.37
2023-04-21T06:49:51.450Z,46.73
2023-04-21T06:50:51.491Z,50.27
2023-04-21T06:51:51.433Z,64.61
2023-04-21T06:52:51.439Z,56.72
2023-04-21T06:53:51.422Z,48.18
2023-04-21T06:54:51.419Z,55.75
2023-04-21T06:55:51.428Z,50.11
2023-04-21T06:56:51.439Z,50.27
2023-04-21T06:57:51.441Z,50.60
2023-04-21T06:58:51.398Z,56.40
2023-04-21T06:59:51.382Z,53.50
2023-04-21T07:00:51.450Z,62.20
2023-04-21T07:01:51.356Z,52.85
2023-04-21T07:02:51.520Z,60.42
2023-04-21T07:03:51.374Z,56.56
2023-04-21T07:04:51.405Z,50.76
2023-04-21T07:05:51.342Z,56.72
2023-04-21T07:06:51.364Z,50.43
2023-04-21T07:07:51.296Z,60.59
2023-04-21T07:08:51.346Z,56.72
2023-04-21T07:09:51.283Z,47.21
2023-04-21T07:10:51.288Z,52.85
2023-04-21T07:11:51.289Z,52.37
2023-04-21T07:12:51.306Z,52.69
2023-04-21T07:13:51.272Z,56.07
2023-04-21T07:14:51.254Z,54.79
2023-04-21T07:15:51.262Z,50.27
2023-04-21T07:16:51.297Z,49.63
2023-04-21T07:17:51.340Z,48.34
2023-04-21T07:18:51.244Z,52.53
2023-04-21T07:19:51.287Z,55.59
2023-04-21T07:20:51.229Z,58.49
2023-04-21T07:21:51.239Z,56.56
2023-04-21T07:22:51.196Z,59.14
2023-04-21T07:23:51.259Z,56.40
2023-04-21T07:24:51.450Z,55.11
2023-04-21T07:25:51.158Z,52.53
2023-04-21T07:26:51.140Z,51.40
2023-04-21T07:27:51.154Z,56.40
2023-04-21T07:28:51.143Z,60.42
2023-04-21T07:29:51.170Z,54.46
2023-04-21T07:30:51.217Z,52.69
2023-04-21T07:31:51.116Z,57.36
2023-04-21T07:32:51.123Z,54.46
2023-04-21T07:33:51.132Z,52.21
2023-04-21T07:34:51.112Z,54.95
2023-04-21T07:35:51.095Z,54.14
2023-04-21T07:36:51.072Z,50.76
2023-04-21T07:37:51.132Z,54.62
2023-04-21T07:38:51.169Z,56.88
2023-04-21T07:39:51.081Z,52.37
2023-04-21T07:40:51.177Z,51.72
2023-04-21T07:41:51.032Z,53.01
2023-04-21T07:42:51.041Z,52.05
2023-04-21T07:43:53.180Z,48.18
2023-04-21T07:44:52.021Z,52.85
2023-04-21T07:45:51.068Z,60.59
2023-04-21T07:46:51.019Z,56.07
2023-04-21T07:47:51.029Z,54.46
2023-04-21T07:48:50.998Z,57.85
2023-04-21T07:49:50.980Z,56.40
2023-04-21T07:50:50.994Z,56.07
2023-04-21T07:51:51.104Z,51.24
2023-04-21T07:52:50.962Z,57.36
2023-04-21T07:53:51.178Z,51.40
2023-04-21T07:54:50.935Z,54.62
2023-04-21T07:55:50.935Z,50.76
2023-04-21T07:57:22.874Z,60.59
2023-04-21T07:57:50.929Z,57.20
2023-04-21T07:58:50.900Z,49.15
2023-04-21T07:59:50.971Z,52.85
2023-04-21T08:00:51.098Z,54.30
2023-04-21T08:01:50.901Z,52.53
2023-04-21T08:02:51.899Z,54.95
2023-04-21T08:03:50.897Z,52.69
2023-04-21T08:04:50.930Z,57.85
2023-04-21T08:05:51.166Z,49.47
2023-04-21T08:06:50.877Z,48.98
2023-04-21T08:07:50.865Z,61.07
2023-04-21T08:08:50.839Z,57.85
2023-04-21T08:09:50.841Z,52.85
2023-04-21T08:10:50.817Z,53.66
2023-04-21T08:11:50.820Z,53.98
2023-04-21T08:12:50.830Z,60.42
2023-04-21T08:13:50.827Z,48.98
2023-04-21T08:14:50.821Z,51.24
2023-04-21T08:15:50.890Z,53.33
2023-04-21T08:16:50.977Z,58.01
2023-04-21T08:17:50.840Z,55.75
2023-04-21T08:18:50.797Z,49.79
2023-04-21T08:19:50.795Z,53.17
2023-04-21T08:20:50.754Z,50.11
2023-04-21T08:21:50.814Z,51.40
2023-04-21T08:22:50.752Z,50.11
2023-04-21T08:23:50.778Z,51.56
2023-04-21T08:24:50.736Z,57.04
2023-04-21T08:25:50.725Z,47.21
2023-04-21T08:26:50.693Z,55.43
2023-04-21T08:27:50.717Z,50.60
2023-04-21T08:28:50.698Z,49.15
2023-04-21T08:29:50.707Z,63.00
2023-04-21T08:30:50.706Z,51.24
2023-04-21T08:31:50.724Z,56.24
2023-04-21T08:32:50.760Z,52.37
2023-04-21T08:34:01.167Z,57.85
2023-04-21T08:34:52.658Z,50.11
2023-04-21T08:36:02.385Z,50.60
2023-04-21T08:36:52.655Z,60.91
2023-04-21T08:37:51.671Z,53.50
2023-04-21T08:38:51.671Z,48.18
2023-04-21T08:39:50.631Z,52.85
2023-04-21T08:40:50.597Z,47.37
2023-04-21T08:41:50.628Z,54.30
2023-04-21T08:42:50.585Z,56.24
2023-04-21T08:43:50.579Z,51.72
2023-04-21T08:44:50.579Z,54.14
2023-04-21T08:45:50.604Z,46.25
2023-04-21T08:46:50.606Z,53.66
2023-04-21T08:47:50.565Z,60.91
2023-04-21T08:48:51.398Z,50.11
2023-04-21T08:49:50.544Z,49.31
2023-04-21T08:50:50.526Z,53.82
2023-04-21T08:51:50.542Z,54.95
2023-04-21T08:52:50.520Z,47.37
2023-04-21T08:53:50.524Z,55.27
2023-04-21T08:54:50.492Z,56.24
2023-04-21T08:55:59.592Z,52.05
2023-04-21T08:56:58.936Z,51.08
2023-04-21T08:57:51.507Z,47.21
2023-04-21T08:58:50.525Z,62.84
2023-04-21T08:59:50.456Z,46.57
2023-04-21T09:00:50.499Z,46.41
2023-04-21T09:01:50.532Z,49.95
2023-04-21T09:02:59.421Z,48.34
2023-04-21T09:03:52.660Z,49.15
2023-04-21T09:04:50.862Z,51.08
2023-04-21T09:05:50.710Z,61.39
2023-04-21T09:06:50.464Z,53.50
2023-04-21T09:07:50.398Z,52.21
2023-04-21T09:08:50.397Z,56.24
2023-04-21T09:09:50.375Z,54.62
2023-04-21T09:10:51.242Z,48.18
2023-04-21T09:11:50.359Z,59.30
2023-04-21T09:12:50.388Z,59.46
2023-04-21T09:13:50.373Z,59.94
2023-04-21T09:14:50.386Z,50.60
2023-04-21T09:15:50.353Z,52.69
2023-04-21T09:16:50.337Z,60.59
2023-04-21T09:17:50.388Z,52.69
2023-04-21T09:18:50.345Z,62.36
2023-04-21T09:19:50.381Z,47.53
2023-04-21T09:20:50.327Z,49.79
2023-04-21T09:21:50.305Z,54.14
2023-04-21T09:22:50.330Z,52.53
2023-04-21T09:23:50.366Z,51.24
2023-04-21T09:24:50.254Z,55.27
2023-04-21T09:25:50.259Z,53.66
2023-04-21T09:26:50.244Z,58.33
2023-04-21T09:27:50.241Z,48.82
2023-04-21T09:28:50.251Z,53.33
2023-04-21T09:29:50.228Z,56.24
2023-04-21T09:30:50.264Z,53.50
2023-04-21T09:31:50.271Z,54.79
2023-04-21T09:32:50.257Z,56.07
2023-04-21T09:33:57.662Z,57.36
2023-04-21T09:34:52.226Z,58.33
2023-04-21T09:35:50.205Z,47.86
2023-04-21T09:36:50.191Z,52.05
2023-04-21T09:37:50.171Z,54.62
2023-04-21T09:38:50.227Z,60.26
2023-04-21T09:40:03.668Z,51.56
2023-04-21T09:40:52.169Z,53.50
2023-04-21T09:41:50.131Z,61.87
2023-04-21T09:42:50.112Z,52.69
2023-04-21T09:43:50.182Z,55.59
2023-04-21T09:44:55.380Z,48.50
2023-04-21T09:45:52.112Z,56.72
2023-04-21T09:46:50.352Z,50.92
2023-04-21T09:47:50.124Z,58.33
2023-04-21T09:48:50.049Z,57.85
2023-04-21T09:49:50.121Z,48.66
2023-04-21T09:52:16.715Z,51.24
2023-04-21T09:52:52.039Z,55.59
2023-04-21T09:53:50.037Z,55.75
2023-04-21T09:54:50.062Z,52.05
2023-04-21T09:55:50.034Z,56.40
2023-04-21T09:56:50.042Z,54.62
2023-04-21T09:57:50.106Z,56.72
2023-04-21T09:58:50.098Z,49.63
2023-04-21T09:59:49.991Z,50.60
2023-04-21T10:00:50.013Z,58.97
2023-04-21T10:01:50.029Z,56.07
2023-04-21T10:02:50.148Z,49.63
2023-04-21T10:03:50.125Z,54.79
2023-04-21T10:04:50.170Z,50.27
2023-04-21T10:05:50.007Z,60.91
2023-04-21T10:06:49.936Z,55.91
2023-04-21T10:07:49.933Z,53.66
2023-04-21T10:08:49.908Z,53.33
2023-04-21T10:09:49.937Z,60.75
2023-04-21T10:10:49.896Z,60.10
2023-04-21T10:11:49.897Z,49.79
2023-04-21T10:12:49.897Z,60.42
2023-04-21T10:13:49.871Z,51.88
2023-04-21T10:14:49.969Z,55.75
2023-04-21T10:15:49.986Z,51.88
2023-04-21T10:16:49.886Z,56.72
2023-04-21T10:17:49.897Z,47.21
2023-04-21T10:18:49.866Z,56.88
2023-04-21T10:19:49.825Z,56.40
2023-04-21T10:21:21.772Z,55.91
2023-04-21T10:22:22.856Z,53.01
2023-04-21T10:23:21.762Z,51.08
2023-04-21T10:24:22.502Z,58.01
2023-04-21T10:25:22.490Z,57.85
2023-04-21T10:25:49.789Z,57.36
2023-04-21T10:27:21.740Z,53.98
2023-04-21T10:27:49.847Z,61.71
2023-04-21T10:29:22.531Z,64.78
2023-04-21T10:29:56.704Z,57.20
2023-04-21T10:30:51.767Z,50.43
2023-04-21T10:31:49.792Z,60.26
2023-04-21T10:32:49.770Z,58.65
2023-04-21T10:33:49.743Z,50.60
2023-04-21T10:34:49.732Z,50.92
2023-04-21T10:35:49.716Z,49.95
2023-04-21T10:36:49.713Z,64.13
2023-04-21T10:37:49.695Z,55.59
2023-04-21T10:38:49.700Z,55.27
2023-04-21T10:39:49.723Z,63.65
2023-04-21T10:40:49.680Z,59.94
2023-04-21T10:41:49.661Z,58.01
2023-04-21T10:42:49.675Z,61.55
2023-04-21T10:43:50.010Z,58.97
2023-04-21T10:44:50.669Z,47.05
2023-04-21T10:45:49.648Z,51.72
2023-04-21T10:46:49.647Z,67.19
2023-04-21T10:47:49.739Z,54.95
2023-04-21T10:48:49.650Z,52.69
2023-04-21T10:50:21.547Z,57.20
2023-04-21T10:50:49.628Z,54.79
2023-04-21T10:51:49.673Z,55.43
2023-04-21T10:52:49.598Z,60.75
2023-04-21T10:53:49.651Z,47.70
2023-04-21T10:54:49.580Z,49.95
2023-04-21T10:55:49.595Z,47.86
2023-04-21T10:56:49.557Z,59.62
2023-04-21T10:57:49.592Z,61.71
2023-04-21T10:58:49.575Z,60.42
2023-04-21T10:59:49.592Z,53.82
2023-04-21T11:00:49.606Z,53.50
2023-04-21T11:01:49.522Z,53.01
2023-04-21T11:02:49.606Z,55.11
2023-04-21T11:03:49.704Z,51.56
2023-04-21T11:04:49.739Z,56.56
2023-04-21T11:05:49.484Z,52.53
2023-04-21T11:06:49.486Z,60.10
2023-04-21T11:07:49.698Z,55.91
2023-04-21T11:08:49.471Z,58.33
2023-04-21T11:09:49.483Z,61.55
2023-04-21T11:10:49.534Z,53.17
2023-04-21T11:11:50.144Z,52.85
2023-04-21T11:12:50.132Z,54.30
2023-04-21T11:13:49.431Z,58.33
2023-04-21T11:14:50.171Z,59.62
2023-04-21T11:15:49.453Z,60.26
2023-04-21T11:16:49.414Z,49.79
2023-04-21T11:17:49.451Z,56.56
2023-04-21T11:18:49.379Z,62.20
2023-04-21T11:19:50.055Z,54.62
2023-04-21T11:20:49.379Z,56.40
2023-04-21T11:21:49.360Z,60.75
2023-04-21T11:22:50.152Z,48.82
2023-04-21T11:23:49.370Z,56.56
2023-04-21T11:24:49.345Z,56.07
2023-04-21T11:25:50.860Z,53.33
2023-04-21T11:26:50.375Z,60.91
2023-04-21T11:27:49.323Z,51.24
2023-04-21T11:28:49.330Z,52.53
2023-04-21T11:29:49.333Z,55.11
2023-04-21T11:30:50.205Z,50.92
2023-04-21T11:31:49.299Z,57.36
2023-04-21T11:32:49.287Z,60.10
2023-04-21T11:33:49.264Z,48.66
2023-04-21T11:34:49.265Z,52.85
2023-04-21T11:35:49.277Z,50.11
2023-04-21T11:36:49.283Z,53.33
2023-04-21T11:37:49.246Z,61.87
2023-04-21T11:38:49.292Z,61.07
2023-04-21T11:39:49.264Z,54.62
2023-04-21T11:40:49.224Z,59.46
2023-04-21T11:41:49.232Z,55.75
2023-04-21T11:42:49.206Z,54.79
2023-04-21T11:43:49.191Z,59.14
2023-04-21T11:44:49.187Z,51.56
2023-04-21T11:45:49.248Z,50.43
2023-04-21T11:46:49.486Z,62.68
2023-04-21T11:47:49.238Z,49.63
2023-04-21T11:48:49.203Z,62.52
2023-04-21T11:49:49.187Z,57.36
2023-04-21T11:50:49.197Z,50.76
2023-04-21T11:51:49.161Z,52.05
2023-04-21T11:52:49.140Z,58.81
2023-04-21T11:53:49.137Z,50.76
2023-04-21T11:54:49.135Z,59.78
2023-04-21T11:55:49.114Z,48.66
2023-04-21T11:56:49.112Z,60.59
2023-04-21T11:57:49.135Z,56.72
2023-04-21T11:58:49.079Z,53.98
2023-04-21T11:59:49.090Z,56.72
2023-04-21T12:00:49.094Z,54.46
2023-04-21T12:01:49.055Z,54.30
2023-04-21T12:02:49.150Z,64.78
2023-04-21T12:03:49.225Z,59.46
2023-04-21T12:04:49.188Z,53.82
2023-04-21T12:05:49.085Z,61.23
2023-04-21T12:06:49.046Z,56.88
2023-04-21T12:07:49.020Z,60.91
2023-04-21T12:08:49.042Z,55.75
2023-04-21T12:09:49.031Z,56.88
2023-04-21T12:10:49.008Z,52.05
2023-04-21T12:11:49.735Z,57.69
2023-04-21T12:12:49.968Z,52.69
2023-04-21T12:13:48.974Z,55.75
2023-04-21T12:14:49.020Z,55.91
2023-04-21T12:15:49.085Z,63.33
2023-04-21T12:16:49.071Z,60.91
2023-04-21T12:17:49.045Z,53.01
2023-04-21T12:18:48.996Z,50.60
2023-04-21T12:19:48.939Z,53.66
2023-04-21T12:20:48.898Z,52.05
2023-04-21T12:21:48.929Z,64.45
2023-04-21T12:22:48.903Z,61.87
2023-04-21T12:23:48.928Z,58.81
2023-04-21T12:24:48.898Z,52.05
2023-04-21T12:25:48.870Z,57.85
2023-04-21T12:26:48.884Z,58.81
2023-04-21T12:27:48.873Z,61.07
2023-04-21T12:28:48.874Z,50.92
2023-04-21T12:29:49.043Z,52.21
2023-04-21T12:30:48.857Z,60.59
2023-04-21T12:31:49.006Z,54.46
2023-04-21T12:32:48.970Z,64.45
2023-04-21T12:33:48.841Z,61.87
2023-04-21T12:34:48.817Z,61.55
2023-04-21T12:35:48.805Z,53.17
2023-04-21T12:36:48.815Z,51.72
2023-04-21T12:37:48.838Z,60.10
2023-04-21T12:38:48.801Z,62.36
2023-04-21T12:39:48.802Z,53.17
2023-04-21T12:40:48.825Z,56.24
2023-04-21T12:41:48.841Z,52.53
2023-04-21T12:42:48.825Z,54.30
2023-04-21T12:43:48.747Z,65.26
2023-04-21T12:44:48.753Z,59.78
2023-04-21T12:45:48.790Z,59.14
2023-04-21T12:46:48.805Z,59.14
2023-04-21T12:47:48.761Z,49.63
2023-04-21T12:48:48.732Z,47.21
2023-04-21T12:49:48.714Z,53.17
2023-04-21T12:50:48.766Z,50.27
2023-04-21T12:51:48.750Z,66.87
2023-04-21T12:52:48.693Z,60.59
2023-04-21T12:53:48.671Z,59.78
2023-04-21T12:54:48.690Z,59.46
2023-04-21T12:56:01.001Z,52.05
2023-04-21T12:56:51.679Z,59.62
2023-04-21T12:57:48.670Z,54.14
2023-04-21T12:58:48.634Z,51.72
2023-04-21T12:59:48.694Z,53.98
2023-04-21T13:00:48.703Z,64.29
2023-04-21T13:01:48.762Z,54.14
2023-04-21T13:02:48.783Z,53.01
2023-04-21T13:03:48.819Z,57.52
2023-04-21T13:04:49.509Z,53.66
2023-04-21T13:05:48.602Z,54.46
2023-04-21T13:06:48.682Z,55.59
2023-04-21T13:07:48.602Z,58.33
2023-04-21T13:08:48.589Z,62.68
2023-04-21T13:09:48.648Z,56.56